Time;durP1;ratioP1;P1;durP2;ratioP2;P2;SDS_P1;SDS_P2;PMS_P1;PMS_P2;Temp;Humidity;BMP_temperature;BMP_pressure;BME280_temperature;BME280_humidity;BME280_pressure;Samples;Min_cycle;Max_cycle;Signal;HPM_P1;HPM_P2
2023/09/25 00:00:20;;;;;;;4.13;3.07;;;13.10;99.90;;;;;;5035287;28;20470;-73
2023/09/25 00:02:48;;;;;;;3.90;3.37;;;13.20;99.90;;;;;;5035359;28;20909;-73
2023/09/25 00:05:17;;;;;;;2.80;2.50;;;13.10;99.90;;;;;;5036461;28;20561;-72
2023/09/25 00:07:46;;;;;;;3.70;2.90;;;13.10;99.90;;;;;;5035196;28;20449;-72
2023/09/25 00:10:14;;;;;;;2.90;2.53;;;13.10;99.90;;;;;;5036927;28;20431;-72
2023/09/25 00:12:44;;;;;;;3.10;2.60;;;13.10;99.90;;;;;;5035082;28;20505;-72
2023/09/25 00:15:12;;;;;;;3.40;3.10;;;13.10;99.90;;;;;;5034983;28;20466;-73
2023/09/25 00:17:42;;;;;;;3.40;3.10;;;13.10;99.90;;;;;;5036243;28;20437;-72
2023/09/25 00:20:12;;;;;;;2.90;2.63;;;13.10;99.90;;;;;;5041344;28;20474;-73
2023/09/25 00:22:40;;;;;;;3.70;2.93;;;13.00;99.90;;;;;;5038583;28;20477;-72
2023/09/25 00:25:09;;;;;;;3.30;3.00;;;13.00;99.90;;;;;;5037845;28;20823;-73
2023/09/25 00:27:37;;;;;;;3.10;2.80;;;13.00;99.90;;;;;;5036550;28;20949;-72
2023/09/25 00:30:08;;;;;;;3.57;3.27;;;13.00;99.90;;;;;;5035069;28;20486;-73
2023/09/25 00:32:37;;;;;;;3.20;2.90;;;13.00;99.90;;;;;;5037132;28;20412;-72
2023/09/25 00:35:06;;;;;;;3.10;2.80;;;13.00;99.90;;;;;;5034625;28;20836;-73
2023/09/25 00:37:34;;;;;;;3.60;3.30;;;13.00;99.90;;;;;;5034661;28;20542;-73
2023/09/25 00:40:12;;;;;;;4.80;3.27;;;12.90;99.90;;;;;;5034775;28;20471;-72
2023/09/25 00:42:42;;;;;;;3.47;3.17;;;12.90;99.90;;;;;;5034672;28;20485;-73
2023/09/25 00:45:12;;;;;;;4.03;3.20;;;12.90;99.90;;;;;;5034806;28;20883;-73
2023/09/25 00:47:42;;;;;;;3.10;2.70;;;12.90;99.90;;;;;;5034691;28;20478;-73
2023/09/25 00:50:11;;;;;;;2.70;2.50;;;12.90;99.90;;;;;;5035427;28;20435;-73
2023/09/25 00:52:42;;;;;;;3.37;3.07;;;12.80;99.90;;;;;;5035590;28;21013;-73
2023/09/25 00:55:11;;;;;;;3.50;3.17;;;12.80;99.90;;;;;;5034286;28;20543;-73
2023/09/25 00:57:40;;;;;;;3.37;3.07;;;12.80;99.90;;;;;;5034285;28;20842;-73
2023/09/25 01:00:11;;;;;;;3.47;3.00;;;12.80;99.90;;;;;;5034137;28;20477;-73
2023/09/25 01:02:42;;;;;;;3.93;3.53;;;12.80;99.90;;;;;;5034230;28;20439;-73
2023/09/25 01:05:11;;;;;;;3.30;3.00;;;12.70;99.90;;;;;;5035773;28;20870;-73
2023/09/25 01:07:41;;;;;;;3.40;3.10;;;12.70;99.90;;;;;;5034047;28;20504;-73
2023/09/25 01:10:15;;;;;;;3.70;3.30;;;12.70;99.90;;;;;;5034055;28;20439;-73
2023/09/25 01:12:44;;;;;;;3.23;2.93;;;12.70;99.90;;;;;;5035244;28;20426;-73
2023/09/25 01:15:14;;;;;;;3.57;3.27;;;12.70;99.90;;;;;;5035128;28;20467;-73
2023/09/25 01:17:44;;;;;;;3.73;3.30;;;12.70;99.90;;;;;;5035108;28;20526;-73
2023/09/25 01:20:15;;;;;;;3.17;2.87;;;12.60;99.90;;;;;;5033647;28;20470;-73
2023/09/25 01:22:46;;;;;;;3.37;3.07;;;12.60;99.90;;;;;;5034005;28;20952;-73
2023/09/25 01:25:15;;;;;;;3.90;3.57;;;12.60;99.90;;;;;;5034424;28;20467;-73
2023/09/25 01:27:46;;;;;;;3.53;3.20;;;12.60;99.90;;;;;;5033712;28;20439;-73
2023/09/25 01:30:15;;;;;;;3.83;3.53;;;12.50;99.90;;;;;;5033561;28;20977;-73
2023/09/25 01:32:45;;;;;;;4.00;3.03;;;12.50;99.90;;;;;;5033638;28;20443;-73
2023/09/25 01:35:15;;;;;;;5.23;3.47;;;12.50;99.90;;;;;;5033390;28;20506;-73
2023/09/25 01:37:46;;;;;;;3.33;3.03;;;12.50;99.90;;;;;;5033548;28;20994;-73
2023/09/25 01:40:17;;;;;;;3.60;3.30;;;12.50;99.90;;;;;;5034787;28;20504;-73
2023/09/25 01:42:46;;;;;;;3.80;3.50;;;12.40;99.90;;;;;;5033520;28;20439;-73
2023/09/25 01:45:16;;;;;;;4.03;3.70;;;12.50;99.90;;;;;;5033451;28;20467;-73
2023/09/25 01:47:49;;;;;;;3.37;3.17;;;12.40;99.90;;;;;;5033338;28;20443;-73
2023/09/25 01:50:19;;;;;;;3.50;3.20;;;12.40;99.90;;;;;;5033250;28;20440;-73
2023/09/25 01:52:49;;;;;;;3.40;3.10;;;12.40;99.90;;;;;;5033253;28;20443;-73
2023/09/25 01:55:17;;;;;;;3.97;3.63;;;12.40;99.90;;;;;;5033238;28;20471;-73
2023/09/25 01:57:46;;;;;;;3.93;3.63;;;12.30;99.90;;;;;;5033128;28;20999;-72
2023/09/25 02:00:18;;;;;;;3.67;3.30;;;12.30;99.90;;;;;;5033007;28;20892;-72
2023/09/25 02:02:46;;;;;;;4.23;3.83;;;12.30;99.90;;;;;;5033072;28;20439;-72
2023/09/25 02:05:15;;;;;;;3.70;3.40;;;12.30;99.90;;;;;;5033051;28;20553;-72
2023/09/25 02:07:44;;;;;;;4.10;3.70;;;12.30;99.90;;;;;;5033113;28;20545;-72
2023/09/25 02:10:14;;;;;;;4.20;3.80;;;12.30;99.90;;;;;;5032831;28;20538;-72
2023/09/25 02:12:43;;;;;;;4.00;3.60;;;12.20;99.90;;;;;;5034659;28;20447;-72
2023/09/25 02:15:12;;;;;;;5.17;4.27;;;12.20;99.90;;;;;;5032648;28;20490;-72
2023/09/25 02:17:41;;;;;;;4.30;3.90;;;12.20;99.90;;;;;;5032743;28;20466;-72
2023/09/25 02:20:20;;;;;;;4.20;3.90;;;12.20;99.90;;;;;;5033795;28;20438;-72
2023/09/25 02:22:50;;;;;;;4.40;4.00;;;12.20;99.90;;;;;;5032640;28;20501;-72
2023/09/25 02:25:20;;;;;;;4.07;3.77;;;12.20;99.90;;;;;;5032594;28;20463;-72
2023/09/25 02:27:48;;;;;;;4.27;3.70;;;12.10;99.90;;;;;;5034956;28;20522;-72
2023/09/25 02:30:16;;;;;;;5.63;3.80;;;12.10;99.90;;;;;;5033947;28;20813;-72
2023/09/25 02:32:45;;;;;;;4.30;3.90;;;12.10;99.90;;;;;;5033728;28;20435;-72
2023/09/25 02:35:14;;;;;;;3.80;3.50;;;12.10;99.90;;;;;;5033639;28;20897;-72
2023/09/25 02:37:44;;;;;;;3.73;3.43;;;12.10;99.90;;;;;;5032392;28;20443;-72
2023/09/25 02:40:13;;;;;;;4.03;3.70;;;12.10;99.90;;;;;;5032541;28;20459;-72
2023/09/25 02:42:45;;;;;;;5.50;4.43;;;12.10;99.90;;;;;;5033522;28;20415;-72
2023/09/25 02:45:15;;;;;;;3.73;3.43;;;12.10;99.90;;;;;;5032221;28;21028;-73
2023/09/25 02:47:44;;;;;;;4.53;3.70;;;12.10;99.90;;;;;;5032237;28;20538;-72
2023/09/25 02:50:13;;;;;;;4.27;3.30;;;12.00;99.90;;;;;;5032626;28;20450;-72
2023/09/25 02:52:43;;;;;;;3.40;3.10;;;12.10;99.90;;;;;;5032175;28;20885;-72
2023/09/25 02:55:12;;;;;;;4.50;4.10;;;12.00;99.90;;;;;;5031855;28;20466;-72
2023/09/25 02:57:40;;;;;;;3.70;3.40;;;12.00;99.90;;;;;;5032235;28;20443;-72
2023/09/25 03:00:11;;;;;;;4.10;3.70;;;12.10;99.90;;;;;;5033586;28;20441;-72
2023/09/25 03:02:40;;;;;;;3.83;3.53;;;12.00;99.90;;;;;;5032044;28;20871;-72
2023/09/25 03:05:09;;;;;;;4.43;4.03;;;12.00;99.90;;;;;;5032150;28;20490;-72
2023/09/25 03:07:39;;;;;;;4.53;3.53;;;12.00;99.90;;;;;;5033304;28;20500;-72
2023/09/25 03:10:09;;;;;;;4.00;3.70;;;12.00;99.90;;;;;;5032169;28;20821;-73
2023/09/25 03:12:37;;;;;;;4.30;3.90;;;12.00;99.90;;;;;;5032159;28;20471;-72
2023/09/25 03:15:06;;;;;;;4.20;3.80;;;12.00;99.90;;;;;;5033439;28;20828;-72
2023/09/25 03:17:36;;;;;;;4.00;3.70;;;12.00;99.90;;;;;;5031924;28;20446;-72
2023/09/25 03:20:09;;;;;;;4.23;3.93;;;11.90;99.90;;;;;;5033132;28;20439;-72
2023/09/25 03:22:38;;;;;;;4.37;4.07;;;11.90;99.90;;;;;;5032004;28;20990;-72
2023/09/25 03:25:06;;;;;;;4.10;3.80;;;11.90;99.90;;;;;;5031732;28;20463;-73
2023/09/25 03:27:34;;;;;;;4.30;3.90;;;11.90;99.90;;;;;;5031810;28;20455;-73
2023/09/25 03:30:04;;;;;;;4.50;4.10;;;11.90;99.90;;;;;;5031719;28;20458;-73
2023/09/25 03:32:34;;;;;;;4.50;4.13;;;11.90;99.90;;;;;;5032027;28;20535;-72
2023/09/25 03:35:04;;;;;;;4.30;3.90;;;11.90;99.90;;;;;;5033561;28;20466;-73
2023/09/25 03:37:33;;;;;;;4.43;4.03;;;11.90;99.90;;;;;;5031795;28;20504;-72
2023/09/25 03:40:07;;;;;;;3.83;3.53;;;11.90;99.90;;;;;;5033019;28;20434;-73
2023/09/25 03:42:36;;;;;;;4.37;3.97;;;11.90;99.90;;;;;;5031668;28;21031;-72
2023/09/25 03:45:05;;;;;;;5.00;4.10;;;11.80;99.90;;;;;;5031622;28;20471;-73
2023/09/25 03:47:35;;;;;;;4.60;4.20;;;11.80;99.90;;;;;;5033576;28;20932;-72
2023/09/25 03:50:05;;;;;;;4.83;4.43;;;11.80;99.90;;;;;;5031992;28;20505;-72
2023/09/25 03:52:33;;;;;;;3.70;3.40;;;11.80;99.90;;;;;;5033235;28;20999;-73
2023/09/25 03:55:01;;;;;;;4.20;3.80;;;11.80;99.90;;;;;;5032860;28;20557;-72
2023/09/25 03:57:29;;;;;;;4.33;4.00;;;11.80;99.90;;;;;;5032994;28;20792;-73
2023/09/25 03:59:57;;;;;;;4.00;3.70;;;11.70;99.90;;;;;;5032960;28;20435;-72
2023/09/25 04:02:25;;;;;;;4.17;3.77;;;11.70;99.90;;;;;;5032795;28;20833;-73
2023/09/25 04:04:53;;;;;;;4.20;3.80;;;11.70;99.90;;;;;;5032789;28;21041;-73
2023/09/25 04:07:23;;;;;;;6.77;6.20;;;11.70;99.90;;;;;;5036512;28;20438;-72
2023/09/25 04:09:51;;;;;;;16.43;14.80;;;11.70;99.90;;;;;;5035288;28;20442;-72
2023/09/25 04:12:19;;;;;;;13.37;11.57;;;11.70;99.90;;;;;;5036430;28;20470;-72
2023/09/25 04:14:47;;;;;;;12.67;11.37;;;11.70;99.90;;;;;;5036428;28;20454;-72
2023/09/25 04:17:15;;;;;;;16.47;13.10;;;11.70;99.90;;;;;;5036391;28;20548;-72
2023/09/25 04:19:44;;;;;;;13.10;11.70;;;11.60;99.90;;;;;;5036283;28;20438;-72
2023/09/25 04:22:13;;;;;;;8.60;7.80;;;11.60;99.90;;;;;;5036254;28;20466;-72
2023/09/25 04:24:42;;;;;;;7.70;7.00;;;11.70;99.90;;;;;;5036721;28;20973;-72
2023/09/25 04:27:11;;;;;;;6.07;5.57;;;11.70;99.90;;;;;;5036261;28;21024;-72
2023/09/25 04:29:41;;;;;;;5.87;5.17;;;11.60;99.90;;;;;;5036131;28;20439;-72
2023/09/25 04:32:09;;;;;;;4.77;4.37;;;11.60;99.90;;;;;;5041007;28;20960;-72
2023/09/25 04:34:37;;;;;;;5.13;4.73;;;11.60;99.90;;;;;;5039231;28;20561;-73
2023/09/25 04:37:08;;;;;;;4.53;4.13;;;11.60;99.90;;;;;;5038731;28;20438;-72
2023/09/25 04:39:36;;;;;;;4.90;4.50;;;11.60;99.90;;;;;;5035725;28;20431;-72
2023/09/25 04:42:09;;;;;;;6.20;5.60;;;11.60;99.90;;;;;;5036573;28;20466;-72
2023/09/25 04:44:38;;;;;;;9.27;8.37;;;11.50;99.90;;;;;;5036368;28;21103;-72
2023/09/25 04:47:06;;;;;;;8.33;7.20;;;11.60;99.90;;;;;;5036346;28;20443;-73
2023/09/25 04:49:34;;;;;;;6.90;6.20;;;11.60;99.90;;;;;;5036160;28;20441;-72
2023/09/25 04:52:02;;;;;;;7.27;6.53;;;11.50;99.90;;;;;;5035916;28;20522;-72
2023/09/25 04:54:32;;;;;;;5.17;4.77;;;11.50;99.90;;;;;;5035706;28;20549;-72
2023/09/25 04:57:00;;;;;;;5.80;5.03;;;11.50;99.90;;;;;;5035803;28;20475;-72
2023/09/25 04:59:29;;;;;;;5.40;4.90;;;11.50;99.90;;;;;;5034306;28;20441;-72
2023/09/25 05:01:57;;;;;;;6.30;5.77;;;11.50;99.90;;;;;;5034256;28;20517;-73
2023/09/25 05:04:25;;;;;;;6.83;6.00;;;11.50;99.90;;;;;;5035520;28;20458;-72
2023/09/25 05:06:54;;;;;;;5.90;5.40;;;11.50;99.90;;;;;;5035688;28;20530;-72
2023/09/25 05:09:22;;;;;;;6.13;5.53;;;11.50;99.90;;;;;;5035813;28;20441;-72
2023/09/25 05:11:50;;;;;;;6.67;5.97;;;11.50;99.90;;;;;;5035639;28;20430;-73
2023/09/25 05:14:19;;;;;;;5.43;4.93;;;11.50;99.90;;;;;;5035388;28;20871;-72
2023/09/25 05:16:48;;;;;;;5.00;4.60;;;11.50;99.90;;;;;;5035121;28;20435;-72
2023/09/25 05:19:17;;;;;;;5.23;4.80;;;11.50;99.90;;;;;;5035572;28;20431;-73
2023/09/25 05:21:45;;;;;;;4.20;3.90;;;11.50;99.90;;;;;;5035016;28;20513;-72
2023/09/25 05:24:13;;;;;;;4.80;4.40;;;11.50;99.90;;;;;;5035433;28;20882;-72
2023/09/25 05:26:41;;;;;;;4.67;4.27;;;11.50;99.90;;;;;;5034180;28;20443;-72
2023/09/25 05:29:09;;;;;;;6.20;5.23;;;11.40;99.90;;;;;;5034262;28;20961;-72
2023/09/25 05:31:37;;;;;;;5.40;4.77;;;11.50;99.90;;;;;;5035705;28;20438;-72
2023/09/25 05:34:07;;;;;;;5.37;4.97;;;11.40;99.90;;;;;;5035586;28;20447;-72
2023/09/25 05:36:36;;;;;;;5.33;4.37;;;11.40;99.90;;;;;;5033873;28;20541;-72
2023/09/25 05:39:08;;;;;;;4.70;4.30;;;11.40;99.90;;;;;;5033964;28;20474;-72
2023/09/25 05:41:36;;;;;;;4.73;4.30;;;11.40;99.90;;;;;;5035640;28;20423;-72
2023/09/25 05:44:05;;;;;;;4.50;4.13;;;11.40;99.90;;;;;;5033630;28;20841;-72
2023/09/25 05:46:33;;;;;;;4.70;4.30;;;11.40;99.90;;;;;;5034865;28;20812;-72
2023/09/25 05:49:01;;;;;;;5.13;4.63;;;11.40;99.90;;;;;;5035363;28;20438;-72
2023/09/25 05:51:31;;;;;;;5.30;4.83;;;11.50;99.90;;;;;;5034565;28;21011;-72
2023/09/25 05:53:59;;;;;;;5.07;4.57;;;11.50;99.90;;;;;;5033254;28;20547;-72
2023/09/25 05:56:28;;;;;;;5.23;4.73;;;11.50;99.90;;;;;;5033333;28;20546;-72
2023/09/25 05:58:56;;;;;;;5.17;4.77;;;11.50;99.90;;;;;;5033350;28;20447;-72
2023/09/25 06:01:24;;;;;;;4.80;4.33;;;11.50;99.90;;;;;;5034388;28;20445;-72
2023/09/25 06:03:54;;;;;;;4.90;4.50;;;11.50;99.90;;;;;;5033335;28;20463;-72
2023/09/25 06:06:22;;;;;;;5.10;4.70;;;11.50;99.90;;;;;;5034696;28;20493;-72
2023/09/25 06:08:52;;;;;;;5.20;4.70;;;11.50;99.90;;;;;;5034448;28;20493;-72
2023/09/25 06:11:20;;;;;;;5.23;4.73;;;11.60;99.90;;;;;;5035002;28;20428;-72
2023/09/25 06:13:49;;;;;;;4.93;4.53;;;11.50;99.90;;;;;;5033043;28;20439;-72
2023/09/25 06:16:17;;;;;;;5.40;5.00;;;11.60;99.90;;;;;;5034310;28;20525;-72
2023/09/25 06:18:46;;;;;;;5.20;4.70;;;11.60;99.90;;;;;;5034471;28;20435;-72
2023/09/25 06:21:14;;;;;;;5.43;4.93;;;11.60;99.90;;;;;;5034189;28;20541;-72
2023/09/25 06:23:43;;;;;;;5.50;5.10;;;11.60;99.90;;;;;;5034122;28;20466;-72
2023/09/25 06:26:12;;;;;;;4.87;4.47;;;11.70;99.90;;;;;;5034254;28;20539;-72
2023/09/25 06:28:43;;;;;;;7.70;5.03;;;11.70;99.90;;;;;;5034383;28;20477;-72
2023/09/25 06:31:12;;;;;;;5.23;4.73;;;11.70;99.90;;;;;;5034400;28;20526;-72
2023/09/25 06:33:40;;;;;;;6.30;5.20;;;11.80;99.90;;;;;;5034007;28;20474;-72
2023/09/25 06:36:08;;;;;;;5.67;4.93;;;11.80;99.90;;;;;;5033006;28;20443;-71
2023/09/25 06:38:37;;;;;;;5.50;5.03;;;11.80;99.90;;;;;;5034078;28;20469;-72
2023/09/25 06:41:05;;;;;;;6.20;5.70;;;11.90;99.90;;;;;;5034068;28;20442;-72
2023/09/25 06:43:34;;;;;;;5.33;4.93;;;11.90;99.90;;;;;;5033933;28;20517;-72
2023/09/25 06:46:02;;;;;;;7.57;6.13;;;12.00;99.90;;;;;;5034435;28;20435;-72
2023/09/25 06:48:32;;;;;;;6.27;5.67;;;12.00;99.90;;;;;;5034745;28;20446;-72
2023/09/25 06:51:01;;;;;;;5.70;5.23;;;12.10;99.90;;;;;;5034345;28;20768;-72
2023/09/25 06:53:29;;;;;;;5.23;4.83;;;12.10;99.90;;;;;;5035076;28;20469;-73
2023/09/25 06:55:57;;;;;;;5.37;4.97;;;12.20;99.90;;;;;;5037672;28;20977;-72
2023/09/25 06:58:25;;;;;;;5.77;5.27;;;12.20;99.90;;;;;;5034524;28;20546;-72
2023/09/25 07:00:55;;;;;;;11.53;10.43;;;12.20;99.90;;;;;;5033666;28;20443;-72
2023/09/25 07:03:26;;;;;;;7.80;7.03;;;12.30;99.90;;;;;;5034407;28;20469;-71
2023/09/25 07:05:55;;;;;;;7.63;6.33;;;12.30;99.90;;;;;;5032422;28;20497;-72
2023/09/25 07:08:25;;;;;;;7.33;6.57;;;12.40;99.90;;;;;;5034215;28;20477;-72
2023/09/25 07:10:54;;;;;;;5.90;5.40;;;12.40;99.90;;;;;;5034013;28;20443;-72
2023/09/25 07:13:22;;;;;;;10.90;9.77;;;12.50;99.90;;;;;;5033825;28;20778;-72
2023/09/25 07:15:50;;;;;;;9.07;7.80;;;12.60;99.90;;;;;;5032268;28;20466;-72
2023/09/25 07:18:20;;;;;;;6.90;6.20;;;12.70;99.90;;;;;;5034116;28;20443;-72
2023/09/25 07:20:54;;;;;;;12.13;9.37;;;12.70;99.90;;;;;;5032308;28;20443;-72
2023/09/25 07:23:23;;;;;;;5.00;4.40;;;12.80;99.90;;;;;;5033933;28;20545;-72
2023/09/25 07:25:59;;;;;;;11.83;10.63;;;12.90;99.90;;;;;;5032094;28;20534;-72
2023/09/25 07:28:28;;;;;;;6.27;5.60;;;12.90;99.90;;;;;;5034106;28;20454;-72
2023/09/25 07:30:58;;;;;;;6.30;5.70;;;13.00;99.90;;;;;;5034040;28;20428;-72
2023/09/25 07:33:28;;;;;;;6.20;5.60;;;13.10;99.90;;;;;;5033667;28;20902;-72
2023/09/25 07:35:57;;;;;;;5.27;4.53;;;13.20;99.90;;;;;;5031845;28;20495;-72
2023/09/25 07:38:25;;;;;;;4.90;3.70;;;13.20;99.90;;;;;;5033380;28;20539;-72
2023/09/25 07:40:53;;;;;;;4.37;3.90;;;13.30;99.90;;;;;;5034545;28;20526;-72
2023/09/25 07:43:29;;;;;;;4.30;4.00;;;13.40;99.90;;;;;;5037552;28;20556;-73
2023/09/25 07:46:02;;;;;;;4.10;3.70;;;13.40;99.90;;;;;;5038157;28;20473;-72
2023/09/25 07:48:33;;;;;;;5.27;4.17;;;13.50;99.90;;;;;;5037942;28;20818;-73
2023/09/25 07:51:01;;;;;;;4.20;3.80;;;13.60;99.90;;;;;;5037434;28;20430;-73
2023/09/25 07:53:29;;;;;;;4.23;3.73;;;13.70;99.90;;;;;;5036073;28;20538;-73
2023/09/25 07:55:58;;;;;;;3.90;3.60;;;13.80;99.90;;;;;;5036757;28;20520;-74
2023/09/25 07:58:28;;;;;;;4.37;3.73;;;13.90;99.90;;;;;;5037363;28;20449;-73
2023/09/25 08:01:00;;;;;;;4.50;3.90;;;13.90;99.90;;;;;;5037561;28;20442;-73
2023/09/25 08:03:29;;;;;;;3.90;3.50;;;14.00;99.90;;;;;;5037040;28;20458;-72
2023/09/25 08:06:04;;;;;;;5.27;3.70;;;14.10;99.90;;;;;;5037408;28;21005;-73
2023/09/25 08:08:33;;;;;;;3.97;2.93;;;14.20;99.90;;;;;;5037295;28;20459;-73
2023/09/25 08:11:02;;;;;;;4.07;3.67;;;14.30;99.90;;;;;;5037199;28;21045;-73
2023/09/25 08:13:31;;;;;;;3.77;3.40;;;14.40;99.90;;;;;;5035703;28;20817;-73
2023/09/25 08:16:05;;;;;;;3.43;3.13;;;14.50;99.90;;;;;;5036926;28;20454;-73
2023/09/25 08:18:34;;;;;;;7.70;5.63;;;14.60;99.90;;;;;;5037228;28;20488;-73
2023/09/25 08:21:04;;;;;;;8.40;6.10;;;14.70;99.90;;;;;;5037398;28;20443;-73
2023/09/25 08:23:33;;;;;;;4.83;3.30;;;14.80;99.90;;;;;;5037033;28;20542;-73
2023/09/25 08:26:01;;;;;;;3.67;3.17;;;14.90;99.90;;;;;;5035598;28;20417;-73
2023/09/25 08:28:29;;;;;;;3.43;3.13;;;15.00;99.90;;;;;;5035434;28;20443;-73
2023/09/25 08:30:57;;;;;;;4.40;3.53;;;15.10;99.90;;;;;;5035628;28;20493;-74
2023/09/25 08:33:26;;;;;;;3.73;3.00;;;15.20;99.90;;;;;;5035250;28;20461;-74
2023/09/25 08:35:54;;;;;;;3.30;3.00;;;15.30;99.90;;;;;;5035443;28;20459;-74
2023/09/25 08:38:23;;;;;;;12.20;10.10;;;15.30;99.90;;;;;;5036720;28;20501;-74
2023/09/25 08:40:51;;;;;;;10.10;3.80;;;15.40;99.90;;;;;;5036607;28;20445;-73
2023/09/25 08:43:21;;;;;;;3.17;2.90;;;15.50;99.90;;;;;;5036451;28;20451;-74
2023/09/25 08:45:50;;;;;;;3.67;3.10;;;15.60;99.90;;;;;;5036215;28;20524;-74
2023/09/25 08:48:19;;;;;;;5.43;2.97;;;15.70;99.90;;;;;;5036197;28;20431;-73
2023/09/25 08:50:48;;;;;;;2.60;2.40;;;15.70;99.90;;;;;;5034934;28;20450;-74
2023/09/25 08:53:17;;;;;;;3.03;2.60;;;15.80;99.90;;;;;;5036168;28;20443;-74
2023/09/25 08:55:47;;;;;;;2.93;2.63;;;15.90;99.90;;;;;;5036099;28;20451;-74
2023/09/25 08:58:16;;;;;;;5.03;2.97;;;16.00;99.90;;;;;;5034776;28;20950;-74
2023/09/25 09:00:45;;;;;;;2.70;2.50;;;16.10;99.90;;;;;;5036317;28;20489;-74
2023/09/25 09:03:13;;;;;;;2.77;2.57;;;16.20;99.90;;;;;;5036181;28;20438;-75
2023/09/25 09:05:41;;;;;;;3.10;2.30;;;16.30;99.90;;;;;;5036371;28;20533;-73
2023/09/25 09:08:10;;;;;;;3.87;2.70;;;16.30;99.90;;;;;;5035145;28;20449;-73
2023/09/25 09:10:40;;;;;;;4.70;4.13;;;16.40;99.90;;;;;;5036737;28;20530;-73
2023/09/25 09:13:09;;;;;;;3.37;3.07;;;16.50;99.90;;;;;;5035144;28;20433;-74
2023/09/25 09:15:39;;;;;;;4.10;2.83;;;16.60;99.90;;;;;;5036824;28;20509;-73
2023/09/25 09:18:20;;;;;;;2.90;2.30;;;16.70;99.90;;;;;;5034968;28;20443;-74
2023/09/25 09:20:54;;;;;;;2.90;2.20;;;16.80;99.90;;;;;;5036251;28;20922;-74
2023/09/25 09:23:39;;;;;;;3.37;2.80;;;16.80;99.90;;;;;;5036109;28;20467;-75
2023/09/25 09:26:08;;;;;;;2.23;2.03;;;16.90;99.90;;;;;;5036257;28;20862;-75
2023/09/25 09:28:38;;;;;;;2.70;2.10;;;17.00;99.90;;;;;;5035960;28;20438;-75
2023/09/25 09:31:07;;;;;;;2.57;2.20;;;17.00;99.90;;;;;;5035808;28;20521;-75
2023/09/25 09:33:41;;;;;;;4.20;3.30;;;17.10;99.90;;;;;;5035640;28;20448;-74
2023/09/25 09:36:10;;;;;;;4.43;3.00;;;17.10;99.90;;;;;;5034698;28;20438;-75
2023/09/25 09:38:39;;;;;;;3.00;2.37;;;17.20;99.90;;;;;;5034584;28;20446;-75
2023/09/25 09:41:08;;;;;;;2.70;2.30;;;17.30;99.90;;;;;;5035937;28;20777;-75
2023/09/25 09:43:38;;;;;;;5.13;2.20;;;17.30;99.90;;;;;;5035708;28;20426;-75
2023/09/25 09:46:11;;;;;;;2.87;2.50;;;17.40;99.90;;;;;;5036085;28;20476;-74
2023/09/25 09:48:40;;;;;;;2.93;2.40;;;17.50;99.90;;;;;;5035422;28;20428;-74
2023/09/25 09:51:12;;;;;;;3.70;2.33;;;17.60;99.90;;;;;;5035305;28;20425;-74
2023/09/25 09:53:41;;;;;;;3.03;2.20;;;17.70;99.90;;;;;;5034305;28;20414;-74
2023/09/25 09:56:10;;;;;;;1.70;1.50;;;17.70;99.90;;;;;;5035578;28;20573;-74
2023/09/25 09:58:40;;;;;;;4.27;2.70;;;17.80;99.90;;;;;;5035364;28;20492;-74
2023/09/25 10:01:08;;;;;;;2.70;1.80;;;17.90;99.90;;;;;;5034292;28;20451;-74
2023/09/25 10:03:37;;;;;;;2.77;1.73;;;17.90;99.90;;;;;;5039954;28;20448;-74
2023/09/25 10:06:07;;;;;;;2.30;2.10;;;18.00;99.90;;;;;;5036695;28;20442;-74
2023/09/25 10:08:35;;;;;;;2.93;2.03;;;18.00;99.90;;;;;;5035309;28;20917;-74
2023/09/25 10:11:23;;;;;;;2.30;1.70;;;18.10;99.90;;;;;;5034297;28;20430;-74
2023/09/25 10:13:55;;;;;;;4.30;3.20;;;18.10;99.90;;;;;;5035369;28;20398;-74
2023/09/25 10:16:23;;;;;;;2.80;2.20;;;18.20;99.90;;;;;;5035604;28;20394;-74
2023/09/25 10:18:53;;;;;;;3.13;2.30;;;18.30;99.90;;;;;;5033191;28;21036;-75
2023/09/25 10:21:21;;;;;;;3.23;2.27;;;18.30;99.90;;;;;;5034694;28;20467;-74
2023/09/25 10:23:51;;;;;;;4.50;1.93;;;18.40;99.90;;;;;;5037692;28;20471;-74
2023/09/25 10:26:23;;;;;;;3.03;2.17;;;18.50;99.90;;;;;;5040591;28;20459;-75
2023/09/25 10:29:11;;;;;;;2.23;1.90;;;18.50;99.90;;;;;;5036529;28;20411;-74
2023/09/25 10:31:39;;;;;;;2.50;2.13;;;18.60;99.90;;;;;;5037151;28;20444;-75
2023/09/25 10:34:08;;;;;;;3.10;2.10;;;18.70;99.90;;;;;;5035092;28;20459;-75
2023/09/25 10:36:38;;;;;;;6.20;4.30;;;18.80;99.90;;;;;;5033733;28;20418;-74
2023/09/25 10:39:08;;;;;;;3.53;3.00;;;18.80;99.90;;;;;;5035078;28;20410;-75
2023/09/25 10:41:37;;;;;;;2.50;2.30;;;18.90;99.90;;;;;;5034796;28;20466;-74
2023/09/25 10:44:07;;;;;;;2.33;1.90;;;18.90;99.90;;;;;;5034428;28;20901;-74
2023/09/25 10:46:35;;;;;;;2.10;1.90;;;19.00;99.90;;;;;;5034218;28;20467;-75
2023/09/25 10:49:04;;;;;;;2.60;1.90;;;19.00;99.90;;;;;;5032841;28;20494;-75
2023/09/25 10:51:32;;;;;;;5.37;2.03;;;19.10;99.90;;;;;;5034288;28;20435;-75
2023/09/25 10:54:02;;;;;;;3.30;2.40;;;19.10;99.90;;;;;;5033768;28;20817;-75
2023/09/25 10:56:30;;;;;;;2.17;1.73;;;19.20;99.90;;;;;;5034037;28;20455;-75
2023/09/25 10:58:59;;;;;;;2.00;1.67;;;19.20;99.90;;;;;;5032295;28;20451;-75
2023/09/25 11:01:30;;;;;;;2.57;1.83;;;19.20;99.90;;;;;;5033515;28;20538;-75
2023/09/25 11:03:59;;;;;;;2.53;2.00;;;19.30;99.90;;;;;;5032309;28;20471;-75
2023/09/25 11:06:30;;;;;;;2.20;1.77;;;19.30;99.90;;;;;;5033837;28;20470;-75
2023/09/25 11:08:59;;;;;;;2.60;2.10;;;19.40;99.90;;;;;;5033728;28;20789;-75
2023/09/25 11:11:29;;;;;;;1.90;1.70;;;19.40;99.90;;;;;;5033352;28;20445;-75
2023/09/25 11:13:58;;;;;;;1.80;1.67;;;19.40;99.90;;;;;;5033396;28;20488;-75
2023/09/25 11:16:29;;;;;;;3.20;2.17;;;19.50;99.90;;;;;;5033192;28;20933;-75
2023/09/25 11:19:08;;;;;;;2.20;2.00;;;19.60;99.90;;;;;;5033265;28;20432;-75
2023/09/25 11:21:37;;;;;;;2.77;2.33;;;19.60;99.90;;;;;;5032074;28;20538;-75
2023/09/25 11:24:07;;;;;;;3.97;2.30;;;19.70;99.90;;;;;;5033090;28;20461;-75
2023/09/25 11:26:37;;;;;;;2.57;2.23;;;19.70;99.90;;;;;;5033348;28;20465;-75
2023/09/25 11:29:08;;;;;;;2.40;2.00;;;19.80;99.90;;;;;;5033236;28;20949;-75
2023/09/25 11:31:38;;;;;;;2.10;1.90;;;19.90;99.90;;;;;;5033226;28;20419;-75
2023/09/25 11:34:26;;;;;;;2.20;1.73;;;19.90;99.90;;;;;;5033363;28;20529;-75
2023/09/25 11:36:57;;;;;;;2.10;1.80;;;20.00;99.90;;;;;;5032097;28;20451;-75
2023/09/25 11:39:26;;;;;;;2.23;1.63;;;20.00;99.90;;;;;;5031995;28;20838;-74
2023/09/25 11:41:54;;;;;;;2.20;1.97;;;20.10;99.90;;;;;;5033164;28;21019;-75
2023/09/25 11:44:22;;;;;;;2.27;2.00;;;20.10;99.90;;;;;;5031769;28;20482;-75
2023/09/25 11:46:54;;;;;;;3.47;1.87;;;20.10;99.90;;;;;;5033362;28;21053;-75
2023/09/25 11:49:22;;;;;;;3.97;1.80;;;20.20;99.90;;;;;;5033590;28;20917;-75
2023/09/25 11:51:50;;;;;;;4.00;3.13;;;20.20;99.90;;;;;;5033204;28;20857;-75
2023/09/25 11:54:18;;;;;;;2.13;1.80;;;20.20;99.90;;;;;;5033550;28;20455;-75
2023/09/25 11:56:46;;;;;;;3.40;2.20;;;20.20;99.90;;;;;;5033524;28;20505;-75
2023/09/25 11:59:16;;;;;;;3.00;1.90;;;20.20;99.90;;;;;;5033011;28;20438;-75
2023/09/25 12:01:45;;;;;;;1.83;1.57;;;20.20;99.90;;;;;;5032014;28;21007;-75
2023/09/25 12:04:14;;;;;;;2.33;1.93;;;20.20;99.90;;;;;;5031568;28;20459;-75
2023/09/25 12:06:46;;;;;;;4.00;2.27;;;20.30;99.90;;;;;;5033246;28;20470;-75
2023/09/25 12:09:14;;;;;;;3.70;1.90;;;20.30;99.90;;;;;;5033415;28;20430;-75
2023/09/25 12:11:43;;;;;;;2.60;1.83;;;20.30;99.90;;;;;;5031737;28;20538;-75
2023/09/25 12:14:11;;;;;;;4.13;1.80;;;20.30;99.90;;;;;;5032650;28;20501;-75
2023/09/25 12:16:39;;;;;;;2.23;2.00;;;20.40;99.90;;;;;;5031472;28;20803;-75
2023/09/25 12:19:07;;;;;;;2.63;1.97;;;20.40;99.90;;;;;;5032805;28;20845;-74
2023/09/25 12:21:37;;;;;;;4.37;2.40;;;20.50;99.90;;;;;;5032985;28;20435;-75
2023/09/25 12:24:06;;;;;;;2.30;1.87;;;20.50;99.90;;;;;;5032591;28;20517;-75
2023/09/25 12:26:34;;;;;;;5.00;2.40;;;20.50;99.90;;;;;;5032269;28;20517;-75
2023/09/25 12:29:03;;;;;;;5.00;4.00;;;20.60;99.90;;;;;;5036758;28;20442;-75
2023/09/25 12:31:31;;;;;;;2.50;2.10;;;20.60;99.90;;;;;;5036356;28;20474;-75
2023/09/25 12:34:00;;;;;;;2.30;1.90;;;20.60;99.90;;;;;;5036441;28;20457;-75
2023/09/25 12:36:28;;;;;;;2.70;1.87;;;20.60;99.90;;;;;;5036208;28;20434;-76
2023/09/25 12:38:58;;;;;;;2.73;1.80;;;20.60;99.90;;;;;;5034852;28;20501;-76
2023/09/25 12:41:26;;;;;;;3.27;1.63;;;20.60;99.90;;;;;;5034796;28;20483;-76
2023/09/25 12:43:54;;;;;;;2.67;1.80;;;20.60;99.90;;;;;;5034471;28;20509;-76
2023/09/25 12:46:22;;;;;;;2.00;1.50;;;20.60;99.90;;;;;;5035942;28;20480;-76
2023/09/25 12:48:51;;;;;;;2.20;1.50;;;20.60;99.90;;;;;;5035951;28;20442;-76
2023/09/25 12:51:19;;;;;;;3.93;2.13;;;20.70;99.90;;;;;;5036306;28;20439;-76
2023/09/25 12:53:48;;;;;;;2.87;1.80;;;20.70;99.90;;;;;;5034466;28;20522;-75
2023/09/25 12:56:18;;;;;;;2.70;1.63;;;20.70;99.90;;;;;;5035728;28;20965;-76